sensor_id;sensor_type;location;lat;lon;timestamp;pressure;altitude;pressure_sealevel;temperature;humidity
59289;BME280;45056;47.602;9.886;2023-03-04T00:00:12;93203.78;;;2.19;64.36
59289;BME280;45056;47.602;9.886;2023-03-04T00:02:40;93200.69;;;2.16;64.49
59289;BME280;45056;47.602;9.886;2023-03-04T00:05:08;93201.06;;;2.15;64.68
59289;BME280;45056;47.602;9.886;2023-03-04T00:07:38;93204.13;;;2.13;64.41
59289;BME280;45056;47.602;9.886;2023-03-04T00:10:06;93202.22;;;2.14;64.32
59289;BME280;45056;47.602;9.886;2023-03-04T00:12:35;93204.13;;;2.13;64.45
59289;BME280;45056;47.602;9.886;2023-03-04T00:15:04;93202.22;;;2.10;63.94
59289;BME280;45056;47.602;9.886;2023-03-04T00:17:32;93210.28;;;2.07;63.78
59289;BME280;45056;47.602;9.886;2023-03-04T00:20:00;93209.09;;;2.04;63.81
59289;BME280;45056;47.602;9.886;2023-03-04T00:22:28;93208.34;;;2.04;63.89
59289;BME280;45056;47.602;9.886;2023-03-04T00:24:58;93212.94;;;2.03;63.82
59289;BME280;45056;47.602;9.886;2023-03-04T00:27:26;93211.00;;;2.00;63.88
59289;BME280;45056;47.602;9.886;2023-03-04T00:29:54;93210.63;;;1.98;63.95
59289;BME280;45056;47.602;9.886;2023-03-04T00:32:23;93212.53;;;1.97;64.08
59289;BME280;45056;47.602;9.886;2023-03-04T00:34:51;93214.81;;;1.95;64.02
59289;BME280;45056;47.602;9.886;2023-03-04T00:37:18;93213.69;;;1.96;64.16
59289;BME280;45056;47.602;9.886;2023-03-04T00:39:46;93214.81;;;1.95;64.15
59289;BME280;45056;47.602;9.886;2023-03-04T00:42:16;93211.38;;;1.95;64.25
59289;BME280;45056;47.602;9.886;2023-03-04T00:44:44;93214.06;;;1.95;64.19
59289;BME280;45056;47.602;9.886;2023-03-04T00:47:12;93223.28;;;1.94;64.03
59289;BME280;45056;47.602;9.886;2023-03-04T00:49:40;93216.38;;;1.93;63.86
59289;BME280;45056;47.602;9.886;2023-03-04T00:52:08;93217.50;;;1.92;63.84
59289;BME280;45056;47.602;9.886;2023-03-04T00:54:36;93206.75;;;1.88;63.65
59289;BME280;45056;47.602;9.886;2023-03-04T00:57:04;93209.06;;;1.86;63.98
59289;BME280;45056;47.602;9.886;2023-03-04T00:59:33;93202.50;;;1.83;63.85
59289;BME280;45056;47.602;9.886;2023-03-04T01:02:01;93204.44;;;1.83;63.94
59289;BME280;45056;47.602;9.886;2023-03-04T01:04:29;93193.31;;;1.81;63.97
59289;BME280;45056;47.602;9.886;2023-03-04T01:06:57;93202.88;;;1.78;63.73
59289;BME280;45056;47.602;9.886;2023-03-04T01:09:25;93200.97;;;1.75;63.90
59289;BME280;45056;47.602;9.886;2023-03-04T01:11:53;93198.69;;;1.73;63.82
59289;BME280;45056;47.602;9.886;2023-03-04T01:14:21;93194.47;;;1.72;64.16
59289;BME280;45056;47.602;9.886;2023-03-04T01:16:51;93190.22;;;1.71;64.11
59289;BME280;45056;47.602;9.886;2023-03-04T01:19:19;93184.09;;;1.71;64.19
59289;BME280;45056;47.602;9.886;2023-03-04T01:21:47;93184.47;;;1.69;63.99
59289;BME280;45056;47.602;9.886;2023-03-04T01:24:15;93181.78;;;1.69;63.78
59289;BME280;45056;47.602;9.886;2023-03-04T01:26:43;93183.72;;;1.69;63.84
59289;BME280;45056;47.602;9.886;2023-03-04T01:29:11;93171.81;;;1.70;63.53
59289;BME280;45056;47.602;9.886;2023-03-04T01:31:39;93185.25;;;1.70;63.34
59289;BME280;45056;47.602;9.886;2023-03-04T01:34:09;93174.88;;;1.68;63.71
59289;BME280;45056;47.602;9.886;2023-03-04T01:36:37;93177.94;;;1.67;63.45
59289;BME280;45056;47.602;9.886;2023-03-04T01:39:05;93175.63;;;1.65;63.38
59289;BME280;45056;47.602;9.886;2023-03-04T01:41:33;93174.88;;;1.65;63.37
59289;BME280;45056;47.602;9.886;2023-03-04T01:44:01;93177.56;;;1.65;63.44
59289;BME280;45056;47.602;9.886;2023-03-04T01:46:30;93170.28;;;1.62;63.36
59289;BME280;45056;47.602;9.886;2023-03-04T01:48:58;93174.09;;;1.61;63.26
59289;BME280;45056;47.602;9.886;2023-03-04T01:51:28;93171.41;;;1.57;63.54
59289;BME280;45056;47.602;9.886;2023-03-04T01:53:56;93175.59;;;1.54;63.31
59289;BME280;45056;47.602;9.886;2023-03-04T01:56:28;93174.44;;;1.52;63.44
59289;BME280;45056;47.602;9.886;2023-03-04T01:59:13;93174.81;;;1.50;63.68
59289;BME280;45056;47.602;9.886;2023-03-04T02:01:44;93178.66;;;1.49;63.54
59289;BME280;45056;47.602;9.886;2023-03-04T02:04:15;93174.44;;;1.48;63.50
59289;BME280;45056;47.602;9.886;2023-03-04T02:06:48;93173.69;;;1.48;63.26
59289;BME280;45056;47.602;9.886;2023-03-04T02:09:18;93168.28;;;1.44;63.41
59289;BME280;45056;47.602;9.886;2023-03-04T02:11:48;93164.06;;;1.43;63.75
59289;BME280;45056;47.602;9.886;2023-03-04T02:14:19;93161.00;;;1.41;63.47
59289;BME280;45056;47.602;9.886;2023-03-04T02:16:49;93170.94;;;1.40;63.61
59289;BME280;45056;47.602;9.886;2023-03-04T02:19:31;93163.28;;;1.39;63.84
59289;BME280;45056;47.602;9.886;2023-03-04T02:22:10;93151.78;;;1.38;63.96
59289;BME280;45056;47.602;9.886;2023-03-04T02:24:45;93155.63;;;1.37;64.13
59289;BME280;45056;47.602;9.886;2023-03-04T02:27:21;93154.84;;;1.37;64.13
59289;BME280;45056;47.602;9.886;2023-03-04T02:32:22;93151.78;;;1.35;64.05
59289;BME280;45056;47.602;9.886;2023-03-04T02:34:51;93153.69;;;1.34;64.02
59289;BME280;45056;47.602;9.886;2023-03-04T02:37:19;93152.16;;;1.33;63.61
59289;BME280;45056;47.602;9.886;2023-03-04T02:39:48;93152.53;;;1.32;63.38
59289;BME280;45056;47.602;9.886;2023-03-04T02:42:17;93148.69;;;1.29;63.12
59289;BME280;45056;47.602;9.886;2023-03-04T02:44:46;93147.13;;;1.24;63.22
59289;BME280;45056;47.602;9.886;2023-03-04T02:47:17;93150.94;;;1.23;63.31
59289;BME280;45056;47.602;9.886;2023-03-04T02:49:45;93148.28;;;1.23;63.52
59289;BME280;45056;47.602;9.886;2023-03-04T02:52:17;93142.16;;;1.23;63.48
59289;BME280;45056;47.602;9.886;2023-03-04T02:54:47;93147.88;;;1.21;63.35
59289;BME280;45056;47.602;9.886;2023-03-04T02:57:15;93150.19;;;1.19;63.42
59289;BME280;45056;47.602;9.886;2023-03-04T02:59:43;93142.53;;;1.18;63.66
59289;BME280;45056;47.602;9.886;2023-03-04T03:02:13;93144.41;;;1.17;63.47
59289;BME280;45056;47.602;9.886;2023-03-04T03:04:41;93145.56;;;1.16;63.80
59289;BME280;45056;47.602;9.886;2023-03-04T03:07:09;93142.88;;;1.16;63.65
59289;BME280;45056;47.602;9.886;2023-03-04T03:09:37;93143.66;;;1.17;63.69
59289;BME280;45056;47.602;9.886;2023-03-04T03:12:05;93155.94;;;1.18;63.46
59289;BME280;45056;47.602;9.886;2023-03-04T03:14:34;93148.63;;;1.18;63.33
59289;BME280;45056;47.602;9.886;2023-03-04T03:17:02;93141.00;;;1.17;63.50
59289;BME280;45056;47.602;9.886;2023-03-04T03:19:31;93142.50;;;1.14;63.44
59289;BME280;45056;47.602;9.886;2023-03-04T03:21:59;93137.13;;;1.14;63.30
59289;BME280;45056;47.602;9.886;2023-03-04T03:24:27;93145.56;;;1.12;63.51
59289;BME280;45056;47.602;9.886;2023-03-04T03:26:55;93140.56;;;1.11;63.51
59289;BME280;45056;47.602;9.886;2023-03-04T03:29:23;93140.19;;;1.09;63.48
59289;BME280;45056;47.602;9.886;2023-03-04T03:31:51;93134.81;;;1.09;63.44
59289;BME280;45056;47.602;9.886;2023-03-04T03:34:19;93140.97;;;1.09;63.14
59289;BME280;45056;47.602;9.886;2023-03-04T03:36:49;93137.50;;;1.09;63.00
59289;BME280;45056;47.602;9.886;2023-03-04T03:39:17;93141.31;;;1.08;63.36
59289;BME280;45056;47.602;9.886;2023-03-04T03:41:45;93141.69;;;1.06;63.30
59289;BME280;45056;47.602;9.886;2023-03-04T03:44:13;93147.03;;;1.06;63.27
59289;BME280;45056;47.602;9.886;2023-03-04T03:46:41;93144.75;;;1.05;63.14
59289;BME280;45056;47.602;9.886;2023-03-04T03:49:09;93148.97;;;1.06;63.08
59289;BME280;45056;47.602;9.886;2023-03-04T03:51:37;93150.88;;;1.05;63.17
59289;BME280;45056;47.602;9.886;2023-03-04T03:54:07;93145.50;;;1.05;62.92
59289;BME280;45056;47.602;9.886;2023-03-04T03:56:35;93143.22;;;1.04;63.04
59289;BME280;45056;47.602;9.886;2023-03-04T03:59:03;93139.00;;;1.03;63.16
59289;BME280;45056;47.602;9.886;2023-03-04T04:01:32;93145.50;;;1.02;62.94
59289;BME280;45056;47.602;9.886;2023-03-04T04:04:00;93146.25;;;0.98;63.03
59289;BME280;45056;47.602;9.886;2023-03-04T04:06:28;93139.72;;;0.96;62.84
59289;BME280;45056;47.602;9.886;2023-03-04T04:08:56;93150.84;;;0.94;62.94
59289;BME280;45056;47.602;9.886;2023-03-04T04:11:25;93151.56;;;0.91;62.88
59289;BME280;45056;47.602;9.886;2023-03-04T04:13:54;93150.03;;;0.90;63.10
59289;BME280;45056;47.602;9.886;2023-03-04T04:16:22;93155.38;;;0.90;63.22
59289;BME280;45056;47.602;9.886;2023-03-04T04:18:50;93148.88;;;0.91;63.18
59289;BME280;45056;47.602;9.886;2023-03-04T04:21:18;93146.19;;;0.91;62.94
59289;BME280;45056;47.602;9.886;2023-03-04T04:23:46;93142.78;;;0.91;63.15
59289;BME280;45056;47.602;9.886;2023-03-04T04:26:14;93149.66;;;0.92;63.03
59289;BME280;45056;47.602;9.886;2023-03-04T04:28:43;93150.81;;;0.91;63.07
59289;BME280;45056;47.602;9.886;2023-03-04T04:31:11;93144.28;;;0.88;62.93
59289;BME280;45056;47.602;9.886;2023-03-04T04:33:39;93145.81;;;0.85;62.84
59289;BME280;45056;47.602;9.886;2023-03-04T04:36:12;93146.56;;;0.86;62.76
59289;BME280;45056;47.602;9.886;2023-03-04T04:38:42;93147.72;;;0.85;62.89
59289;BME280;45056;47.602;9.886;2023-03-04T04:41:19;93158.03;;;0.83;62.83
59289;BME280;45056;47.602;9.886;2023-03-04T04:43:50;93149.25;;;0.82;62.79
59289;BME280;45056;47.602;9.886;2023-03-04T04:46:18;93150.75;;;0.80;62.87
59289;BME280;45056;47.602;9.886;2023-03-04T04:48:47;93143.84;;;0.79;62.73
59289;BME280;45056;47.602;9.886;2023-03-04T04:51:15;93148.44;;;0.78;62.97
59289;BME280;45056;47.602;9.886;2023-03-04T04:53:43;93149.16;;;0.75;62.78
59289;BME280;45056;47.602;9.886;2023-03-04T04:56:13;93154.53;;;0.75;63.02
59289;BME280;45056;47.602;9.886;2023-03-04T04:58:42;93153.78;;;0.75;62.96
59289;BME280;45056;47.602;9.886;2023-03-04T05:01:13;93146.88;;;0.74;62.69
59289;BME280;45056;47.602;9.886;2023-03-04T05:03:42;93152.25;;;0.74;62.71
59289;BME280;45056;47.602;9.886;2023-03-04T05:06:11;93148.03;;;0.73;62.91
59289;BME280;45056;47.602;9.886;2023-03-04T05:08:40;93145.34;;;0.73;62.66
59289;BME280;45056;47.602;9.886;2023-03-04T05:11:08;93145.34;;;0.73;62.93
59289;BME280;45056;47.602;9.886;2023-03-04T05:13:36;93139.22;;;0.72;62.72
59289;BME280;45056;47.602;9.886;2023-03-04T05:16:05;93148.38;;;0.71;62.84
59289;BME280;45056;47.602;9.886;2023-03-04T05:18:35;93146.09;;;0.69;62.48
59289;BME280;45056;47.602;9.886;2023-03-04T05:21:03;93151.44;;;0.69;62.31
59289;BME280;45056;47.602;9.886;2023-03-04T05:23:34;93151.41;;;0.66;62.65
59289;BME280;45056;47.602;9.886;2023-03-04T05:26:05;93151.03;;;0.64;62.79
59289;BME280;45056;47.602;9.886;2023-03-04T05:28:34;93148.34;;;0.64;62.77
59289;BME280;45056;47.602;9.886;2023-03-04T05:31:04;93158.31;;;0.63;62.88
59289;BME280;45056;47.602;9.886;2023-03-04T05:33:32;93146.41;;;0.61;62.74
59289;BME280;45056;47.602;9.886;2023-03-04T05:36:02;93145.63;;;0.60;62.77
59289;BME280;45056;47.602;9.886;2023-03-04T05:38:32;93147.56;;;0.60;62.69
59289;BME280;45056;47.602;9.886;2023-03-04T05:41:03;93150.22;;;0.60;62.49
59289;BME280;45056;47.602;9.886;2023-03-04T05:43:33;93142.56;;;0.58;62.50
59289;BME280;45056;47.602;9.886;2023-03-04T05:46:03;93148.31;;;0.56;63.12
59289;BME280;45056;47.602;9.886;2023-03-04T05:48:32;93144.44;;;0.54;63.44
59289;BME280;45056;47.602;9.886;2023-03-04T05:51:01;93150.94;;;0.53;63.55
59289;BME280;45056;47.602;9.886;2023-03-04T05:53:30;93151.34;;;0.51;63.50
59289;BME280;45056;47.602;9.886;2023-03-04T05:55:58;93149.78;;;0.50;63.15
59289;BME280;45056;47.602;9.886;2023-03-04T05:58:26;93152.47;;;0.50;63.51
59289;BME280;45056;47.602;9.886;2023-03-04T06:00:54;93157.03;;;0.50;63.58
59289;BME280;45056;47.602;9.886;2023-03-04T06:03:26;93162.41;;;0.50;63.33
59289;BME280;45056;47.602;9.886;2023-03-04T06:05:54;93155.50;;;0.49;63.26
59289;BME280;45056;47.602;9.886;2023-03-04T06:08:24;93165.06;;;0.50;63.19
59289;BME280;45056;47.602;9.886;2023-03-04T06:10:55;93163.94;;;0.51;63.35
59289;BME280;45056;47.602;9.886;2023-03-04T06:13:24;93168.53;;;0.50;63.32
59289;BME280;45056;47.602;9.886;2023-03-04T06:15:54;93172.75;;;0.51;63.54
59289;BME280;45056;47.602;9.886;2023-03-04T06:18:25;93178.09;;;0.51;63.45
59289;BME280;45056;47.602;9.886;2023-03-04T06:20:58;93183.06;;;0.53;63.72
59289;BME280;45056;47.602;9.886;2023-03-04T06:23:29;93180.03;;;0.54;63.71
59289;BME280;45056;47.602;9.886;2023-03-04T06:25:59;93186.53;;;0.57;63.71
59289;BME280;45056;47.602;9.886;2023-03-04T06:28:28;93186.94;;;0.59;63.89
59289;BME280;45056;47.602;9.886;2023-03-04T06:30:56;93187.34;;;0.61;63.70
59289;BME280;45056;47.602;9.886;2023-03-04T06:33:25;93199.59;;;0.62;63.59
59289;BME280;45056;47.602;9.886;2023-03-04T06:35:53;93190.44;;;0.67;63.77
59289;BME280;45056;47.602;9.886;2023-03-04T06:38:22;93192.38;;;0.70;63.70
59289;BME280;45056;47.602;9.886;2023-03-04T06:40:53;93196.63;;;0.75;63.58
59289;BME280;45056;47.602;9.886;2023-03-04T06:43:21;93195.53;;;0.79;63.48
59289;BME280;45056;47.602;9.886;2023-03-04T06:45:49;93192.84;;;0.83;63.33
59289;BME280;45056;47.602;9.886;2023-03-04T06:48:17;93194.78;;;0.86;63.27
59289;BME280;45056;47.602;9.886;2023-03-04T06:50:45;93205.94;;;0.92;63.48
59289;BME280;45056;47.602;9.886;2023-03-04T06:53:13;93204.44;;;0.98;63.56
59289;BME280;45056;47.602;9.886;2023-03-04T06:55:41;93205.63;;;1.04;63.39
59289;BME280;45056;47.602;9.886;2023-03-04T06:58:11;93206.03;;;1.10;63.37
59289;BME280;45056;47.602;9.886;2023-03-04T07:00:39;93204.19;;;1.18;63.38
59289;BME280;45056;47.602;9.886;2023-03-04T07:03:08;93191.59;;;1.25;63.22
59289;BME280;45056;47.602;9.886;2023-03-04T07:05:38;93205.78;;;1.33;63.06
59289;BME280;45056;47.602;9.886;2023-03-04T07:08:06;93206.19;;;1.39;63.04
59289;BME280;45056;47.602;9.886;2023-03-04T07:10:34;93208.50;;;1.44;62.77
59289;BME280;45056;47.602;9.886;2023-03-04T07:13:03;93210.06;;;1.49;62.96
59289;BME280;45056;47.602;9.886;2023-03-04T07:15:32;93205.09;;;1.54;63.08
59289;BME280;45056;47.602;9.886;2023-03-04T07:18:01;93213.19;;;1.62;63.28
59289;BME280;45056;47.602;9.886;2023-03-04T07:20:29;93204.03;;;1.70;63.50
59289;BME280;45056;47.602;9.886;2023-03-04T07:22:57;93206.34;;;1.82;63.59
59289;BME280;45056;47.602;9.886;2023-03-04T07:25:26;93207.53;;;1.92;63.46
59289;BME280;45056;47.602;9.886;2023-03-04T07:27:54;93214.84;;;2.02;63.21
59289;BME280;45056;47.602;9.886;2023-03-04T07:30:22;93211.03;;;2.14;63.26
59289;BME280;45056;47.602;9.886;2023-03-04T07:32:52;93213.38;;;2.27;63.25
59289;BME280;45056;47.602;9.886;2023-03-04T07:35:20;93213.38;;;2.38;63.01
59289;BME280;45056;47.602;9.886;2023-03-04T07:37:48;93214.16;;;2.49;62.61
59289;BME280;45056;47.602;9.886;2023-03-04T07:40:17;93217.59;;;2.60;62.46
59289;BME280;45056;47.602;9.886;2023-03-04T07:42:49;93221.06;;;2.68;62.38
59289;BME280;45056;47.602;9.886;2023-03-04T07:45:17;93216.06;;;2.78;62.44
59289;BME280;45056;47.602;9.886;2023-03-04T07:47:46;93220.69;;;2.88;62.51
59289;BME280;45056;47.602;9.886;2023-03-04T07:50:16;93221.44;;;2.99;62.40
59289;BME280;45056;47.602;9.886;2023-03-04T07:52:46;93214.53;;;3.13;62.18
59289;BME280;45056;47.602;9.886;2023-03-04T07:55:17;93225.25;;;3.27;62.32
59289;BME280;45056;47.602;9.886;2023-03-04T07:57:46;93227.53;;;3.47;61.95
59289;BME280;45056;47.602;9.886;2023-03-04T08:00:16;93226.31;;;3.66;61.96
59289;BME280;45056;47.602;9.886;2023-03-04T08:02:45;93220.06;;;3.87;61.90
59289;BME280;45056;47.602;9.886;2023-03-04T08:05:13;93221.88;;;4.09;61.67
59289;BME280;45056;47.602;9.886;2023-03-04T08:07:42;93219.09;;;4.27;62.05
59289;BME280;45056;47.602;9.886;2023-03-04T08:10:11;93218.94;;;4.52;62.33
59289;BME280;45056;47.602;9.886;2023-03-04T08:12:39;93214.84;;;4.86;61.71
59289;BME280;45056;47.602;9.886;2023-03-04T08:15:08;93221.13;;;5.17;61.49
59289;BME280;45056;47.602;9.886;2023-03-04T08:17:37;93213.97;;;5.42;61.00
59289;BME280;45056;47.602;9.886;2023-03-04T08:20:06;93212.25;;;5.55;61.07
59289;BME280;45056;47.602;9.886;2023-03-04T08:22:34;93222.91;;;5.70;60.88
59289;BME280;45056;47.602;9.886;2023-03-04T08:25:04;93221.19;;;5.87;60.54
59289;BME280;45056;47.602;9.886;2023-03-04T08:27:33;93222.16;;;6.04;60.09
59289;BME280;45056;47.602;9.886;2023-03-04T08:30:03;93223.47;;;6.23;59.99
59289;BME280;45056;47.602;9.886;2023-03-04T08:32:31;93213.13;;;6.45;60.66
59289;BME280;45056;47.602;9.886;2023-03-04T08:34:59;93217.00;;;6.72;60.88
59289;BME280;45056;47.602;9.886;2023-03-04T08:37:28;93215.78;;;7.00;60.52
59289;BME280;45056;47.602;9.886;2023-03-04T08:39:56;93221.59;;;7.22;59.52
59289;BME280;45056;47.602;9.886;2023-03-04T08:42:26;93219.53;;;7.30;57.84
59289;BME280;45056;47.602;9.886;2023-03-04T08:44:54;93221.00;;;7.35;57.26
59289;BME280;45056;47.602;9.886;2023-03-04T08:47:22;93206.56;;;7.42;57.01
59289;BME280;45056;47.602;9.886;2023-03-04T08:49:50;93205.69;;;7.48;57.23
59289;BME280;45056;47.602;9.886;2023-03-04T08:52:19;93210.56;;;7.57;56.78
59289;BME280;45056;47.602;9.886;2023-03-04T08:54:47;93212.63;;;7.70;56.61
59289;BME280;45056;47.602;9.886;2023-03-04T08:57:15;93208.16;;;7.83;56.72
59289;BME280;45056;47.602;9.886;2023-03-04T08:59:44;93212.53;;;7.97;56.08
59289;BME280;45056;47.602;9.886;2023-03-04T09:02:12;93212.44;;;8.01;55.29
59289;BME280;45056;47.602;9.886;2023-03-04T09:04:40;93209.72;;;8.01;55.50
59289;BME280;45056;47.602;9.886;2023-03-04T09:07:08;93213.81;;;8.09;55.79
59289;BME280;45056;47.602;9.886;2023-03-04T09:09:36;93212.91;;;8.16;55.92
59289;BME280;45056;47.602;9.886;2023-03-04T09:12:05;93211.31;;;8.18;55.99
59289;BME280;45056;47.602;9.886;2023-03-04T09:14:34;93219.09;;;8.16;55.91
59289;BME280;45056;47.602;9.886;2023-03-04T09:17:04;93220.91;;;8.03;55.93
59289;BME280;45056;47.602;9.886;2023-03-04T09:19:32;93211.59;;;7.84;56.43
59289;BME280;45056;47.602;9.886;2023-03-04T09:22:00;93217.41;;;7.62;57.17
59289;BME280;45056;47.602;9.886;2023-03-04T09:24:28;93217.00;;;7.43;57.42
59289;BME280;45056;47.602;9.886;2023-03-04T09:26:56;93212.66;;;7.26;57.97
59289;BME280;45056;47.602;9.886;2023-03-04T09:29:24;93217.50;;;7.14;58.11
59289;BME280;45056;47.602;9.886;2023-03-04T09:31:52;93212.25;;;7.03;58.46
59289;BME280;45056;47.602;9.886;2023-03-04T09:34:22;93203.13;;;6.93;58.78
59289;BME280;45056;47.602;9.886;2023-03-04T09:36:50;93212.13;;;6.87;59.11
59289;BME280;45056;47.602;9.886;2023-03-04T09:39:18;93216.47;;;6.81;59.43
59289;BME280;45056;47.602;9.886;2023-03-04T09:41:48;93206.47;;;6.77;59.66
59289;BME280;45056;47.602;9.886;2023-03-04T09:44:25;93199.13;;;6.78;59.66
59289;BME280;45056;47.602;9.886;2023-03-04T09:47:00;93201.84;;;6.78;59.41
59289;BME280;45056;47.602;9.886;2023-03-04T09:49:32;93202.66;;;6.75;59.89
59289;BME280;45056;47.602;9.886;2023-03-04T09:52:06;93202.59;;;6.78;59.90
59289;BME280;45056;47.602;9.886;2023-03-04T09:55:04;93210.97;;;6.88;59.65
59289;BME280;45056;47.602;9.886;2023-03-04T09:57:49;93205.44;;;6.95;59.93
59289;BME280;45056;47.602;9.886;2023-03-04T10:00:22;93209.84;;;7.09;60.16
59289;BME280;45056;47.602;9.886;2023-03-04T10:03:14;93207.53;;;7.31;59.20
59289;BME280;45056;47.602;9.886;2023-03-04T10:05:52;93204.44;;;7.53;58.87
59289;BME280;45056;47.602;9.886;2023-03-04T10:08:39;93207.44;;;7.79;58.23
59289;BME280;45056;47.602;9.886;2023-03-04T10:11:15;93202.72;;;8.03;57.28
59289;BME280;45056;47.602;9.886;2023-03-04T10:14:10;93199.19;;;8.23;56.67
59289;BME280;45056;47.602;9.886;2023-03-04T10:16:52;93205.69;;;8.46;56.34
59289;BME280;45056;47.602;9.886;2023-03-04T10:19:35;93205.06;;;8.58;55.93
59289;BME280;45056;47.602;9.886;2023-03-04T10:22:20;93199.03;;;8.67;55.08
59289;BME280;45056;47.602;9.886;2023-03-04T10:24:55;93207.63;;;8.65;55.36
59289;BME280;45056;47.602;9.886;2023-03-04T10:27:30;93205.06;;;8.58;55.00
59289;BME280;45056;47.602;9.886;2023-03-04T10:29:59;93208.00;;;8.47;55.32
59289;BME280;45056;47.602;9.886;2023-03-04T10:32:27;93204.81;;;8.32;55.69
59289;BME280;45056;47.602;9.886;2023-03-04T10:34:55;93206.13;;;8.24;55.92
59289;BME280;45056;47.602;9.886;2023-03-04T10:37:42;93195.06;;;8.18;56.13
59289;BME280;45056;47.602;9.886;2023-03-04T10:40:19;93192.91;;;8.09;56.23
59289;BME280;45056;47.602;9.886;2023-03-04T10:42:49;93189.56;;;8.02;56.69
59289;BME280;45056;47.602;9.886;2023-03-04T10:45:21;93194.31;;;7.98;57.07
59289;BME280;45056;47.602;9.886;2023-03-04T10:47:53;93192.44;;;7.94;57.04
59289;BME280;45056;47.602;9.886;2023-03-04T10:50:24;93188.94;;;7.94;57.10
59289;BME280;45056;47.602;9.886;2023-03-04T10:52:55;93174.66;;;7.93;56.73
59289;BME280;45056;47.602;9.886;2023-03-04T10:55:27;93180.22;;;7.86;56.96
59289;BME280;45056;47.602;9.886;2023-03-04T10:58:02;93188.34;;;7.86;57.56
59289;BME280;45056;47.602;9.886;2023-03-04T11:00:34;93172.00;;;7.90;57.55
59289;BME280;45056;47.602;9.886;2023-03-04T11:03:22;93179.63;;;7.95;57.40
59289;BME280;45056;47.602;9.886;2023-03-04T11:06:09;93169.56;;;7.96;57.02
59289;BME280;45056;47.602;9.886;2023-03-04T11:08:44;93169.25;;;8.10;57.79
59289;BME280;45056;47.602;9.886;2023-03-04T11:11:27;93167.97;;;8.35;57.80
59289;BME280;45056;47.602;9.886;2023-03-04T11:14:05;93169.44;;;8.56;56.41
59289;BME280;45056;47.602;9.886;2023-03-04T11:16:52;93174.97;;;8.69;55.85
59289;BME280;45056;47.602;9.886;2023-03-04T11:19:27;93170.41;;;8.83;55.45
59289;BME280;45056;47.602;9.886;2023-03-04T11:22:02;93164.56;;;9.01;55.57
59289;BME280;45056;47.602;9.886;2023-03-04T11:24:33;93172.25;;;9.19;54.92
59289;BME280;45056;47.602;9.886;2023-03-04T11:27:10;93169.00;;;9.41;54.45
59289;BME280;45056;47.602;9.886;2023-03-04T11:29:50;93164.94;;;9.62;53.40
59289;BME280;45056;47.602;9.886;2023-03-04T11:32:25;93159.34;;;9.82;52.88
59289;BME280;45056;47.602;9.886;2023-03-04T11:35:03;93156.44;;;10.02;52.38
59289;BME280;45056;47.602;9.886;2023-03-04T11:37:49;93158.22;;;10.22;51.41
59289;BME280;45056;47.602;9.886;2023-03-04T11:40:32;93149.94;;;10.38;51.69
59289;BME280;45056;47.602;9.886;2023-03-04T11:43:11;93151.81;;;10.54;51.07
59289;BME280;45056;47.602;9.886;2023-03-04T11:46:08;93157.59;;;10.57;51.44
59289;BME280;45056;47.602;9.886;2023-03-04T11:49:13;93157.25;;;10.42;51.21
59289;BME280;45056;47.602;9.886;2023-03-04T11:52:02;93158.31;;;10.18;51.30
59289;BME280;45056;47.602;9.886;2023-03-04T11:54:44;93157.06;;;9.93;51.91
59289;BME280;45056;47.602;9.886;2023-03-04T11:57:41;93153.00;;;9.72;52.14
59289;BME280;45056;47.602;9.886;2023-03-04T12:00:33;93156.53;;;9.56;52.48
59289;BME280;45056;47.602;9.886;2023-03-04T12:03:38;93157.25;;;9.44;52.88
59289;BME280;45056;47.602;9.886;2023-03-04T12:06:26;93152.84;;;9.33;53.21
59289;BME280;45056;47.602;9.886;2023-03-04T12:09:13;93149.06;;;9.31;53.45
59289;BME280;45056;47.602;9.886;2023-03-04T12:12:07;93143.50;;;9.21;53.58
59289;BME280;45056;47.602;9.886;2023-03-04T12:15:02;93145.75;;;9.23;53.65
59289;BME280;45056;47.602;9.886;2023-03-04T12:17:59;93139.47;;;9.26;53.80
59289;BME280;45056;47.602;9.886;2023-03-04T12:21:04;93125.28;;;9.35;53.73
59289;BME280;45056;47.602;9.886;2023-03-04T12:24:19;93126.81;;;9.36;53.62
59289;BME280;45056;47.602;9.886;2023-03-04T12:27:09;93124.50;;;9.34;53.33
59289;BME280;45056;47.602;9.886;2023-03-04T12:29:57;93125.38;;;9.31;53.24
59289;BME280;45056;47.602;9.886;2023-03-04T12:32:42;93111.97;;;9.41;53.01
59289;BME280;45056;47.602;9.886;2023-03-04T12:35:32;93118.50;;;9.56;53.31
59289;BME280;45056;47.602;9.886;2023-03-04T12:38:40;93115.44;;;9.84;52.49
59289;BME280;45056;47.602;9.886;2023-03-04T12:41:33;93102.72;;;9.93;51.95
59289;BME280;45056;47.602;9.886;2023-03-04T12:44:14;93098.38;;;10.09;52.11
59289;BME280;45056;47.602;9.886;2023-03-04T12:50:12;93098.19;;;10.42;51.01
59289;BME280;45056;47.602;9.886;2023-03-04T12:53:04;93096.84;;;10.60;50.12
59289;BME280;45056;47.602;9.886;2023-03-04T12:55:44;93091.75;;;10.62;49.58
59289;BME280;45056;47.602;9.886;2023-03-04T12:58:17;93092.53;;;10.49;49.43
59289;BME280;45056;47.602;9.886;2023-03-04T13:00:56;93087.41;;;10.25;49.05
59289;BME280;45056;47.602;9.886;2023-03-04T13:03:40;93083.81;;;10.03;49.57
59289;BME280;45056;47.602;9.886;2023-03-04T13:06:30;93078.91;;;9.85;49.64
59289;BME280;45056;47.602;9.886;2023-03-04T13:09:14;93079.75;;;9.69;50.03
59289;BME280;45056;47.602;9.886;2023-03-04T13:11:52;93081.59;;;9.59;50.76
59289;BME280;45056;47.602;9.886;2023-03-04T13:14:30;93077.53;;;9.50;51.00
59289;BME280;45056;47.602;9.886;2023-03-04T13:17:17;93075.47;;;9.42;51.05
59289;BME280;45056;47.602;9.886;2023-03-04T13:23:22;93075.13;;;9.40;50.71
59289;BME280;45056;47.602;9.886;2023-03-04T13:26:20;93067.34;;;9.55;50.28
59289;BME280;45056;47.602;9.886;2023-03-04T13:32:02;93055.75;;;9.80;49.94
59289;BME280;45056;47.602;9.886;2023-03-04T13:34:47;93052.50;;;9.98;49.73
59289;BME280;45056;47.602;9.886;2023-03-04T13:37:31;93055.00;;;10.18;49.94
59289;BME280;45056;47.602;9.886;2023-03-04T13:40:22;93055.31;;;10.33;49.82
59289;BME280;45056;47.602;9.886;2023-03-04T13:43:24;93052.28;;;10.44;49.90
59289;BME280;45056;47.602;9.886;2023-03-04T13:45:54;93057.25;;;10.59;49.03
59289;BME280;45056;47.602;9.886;2023-03-04T13:48:27;93052.22;;;10.70;48.39
59289;BME280;45056;47.602;9.886;2023-03-04T13:50:59;93057.75;;;10.79;48.26